Time;durP1;ratioP1;P1;durP2;ratioP2;P2;SDS_P1;SDS_P2;PMS_P1;PMS_P2;Temp;Humidity;BMP_temperature;BMP_pressure;BME280_temperature;BME280_humidity;BME280_pressure;Samples;Min_cycle;Max_cycle;Signal;HPM_P1;HPM_P2
2022/03/26 00:02:22;;;;;;;43.67;16.27;;;;;;;5.70;93.51;97802.53;4975961;28;20050;-71
2022/03/26 00:04:47;;;;;;;40.97;16.17;;;;;;;5.56;95.25;97804.19;4979649;28;20034;-71
2022/03/26 00:07:13;;;;;;;44.88;16.65;;;;;;;5.43;94.38;97811.13;4978915;28;20030;-71
2022/03/26 00:09:38;;;;;;;35.97;15.60;;;;;;;5.40;92.98;97815.00;4975601;28;20038;-68
2022/03/26 00:12:04;;;;;;;40.85;15.95;;;;;;;5.34;93.81;97813.06;4976169;28;20121;-69
2022/03/26 00:14:30;;;;;;;39.65;16.10;;;;;;;5.29;96.24;97816.28;4978618;28;20149;-68
2022/03/26 00:16:56;;;;;;;36.50;16.45;;;;;;;5.30;95.77;97820.56;4976640;28;20117;-67
2022/03/26 00:19:22;;;;;;;36.63;16.25;;;;;;;5.19;95.92;97821.00;4978013;28;20394;-69
2022/03/26 00:21:48;;;;;;;39.40;15.52;;;;;;;5.23;94.00;97819.66;4981316;28;20046;-67
2022/03/26 00:24:14;;;;;;;35.13;16.55;;;;;;;5.22;95.23;97819.84;4977706;28;20137;-69
2022/03/26 00:26:40;;;;;;;37.50;16.73;;;;;;;5.09;98.43;97815.16;4977887;28;20572;-67
2022/03/26 00:29:06;;;;;;;41.95;16.67;;;;;;;5.00;97.84;97816.22;4961164;28;20532;-67
2022/03/26 00:31:33;;;;;;;44.50;17.63;;;;;;;5.08;97.83;97832.06;4979935;28;20045;-70
2022/03/26 00:33:59;;;;;;;36.45;17.75;;;;;;;5.11;95.57;97825.56;4981559;28;20422;-68
2022/03/26 00:36:24;;;;;;;38.08;16.90;;;;;;;5.12;95.16;97825.38;4976691;28;20057;-70
2022/03/26 00:38:50;;;;;;;46.28;18.05;;;;;;;5.12;96.85;97821.91;4978877;28;20054;-67
2022/03/26 00:41:15;;;;;;;41.22;16.95;;;;;;;5.16;97.34;97825.88;4975391;28;20149;-71
2022/03/26 00:43:41;;;;;;;35.50;16.65;;;;;;;5.19;97.19;97830.78;4976541;28;20049;-68
2022/03/26 00:46:06;;;;;;;35.88;15.85;;;;;;;5.16;99.39;97825.88;4978151;28;20037;-71
2022/03/26 00:48:32;;;;;;;39.85;16.80;;;;;;;5.05;100.00;97819.16;4976940;28;20064;-70
2022/03/26 00:50:58;;;;;;;48.60;17.25;;;;;;;4.98;100.00;97818.22;4980467;28;20089;-69
2022/03/26 00:53:24;;;;;;;37.53;17.42;;;;;;;4.98;100.00;97818.22;4977686;28;20038;-68
2022/03/26 00:55:49;;;;;;;39.83;17.58;;;;;;;5.01;98.47;97810.75;4976612;28;20096;-69
2022/03/26 00:58:14;;;;;;;42.72;18.30;;;;;;;4.94;98.34;97803.69;4975821;28;20037;-71
2022/03/26 01:00:42;;;;;;;52.97;17.02;;;;;;;4.97;99.55;97812.09;4981515;28;20686;-71
2022/03/26 01:03:09;;;;;;;39.97;17.73;;;;;;;4.99;100.00;97814.59;4976861;28;20053;-69
2022/03/26 01:05:35;;;;;;;44.92;18.17;;;;;;;5.03;100.00;97810.56;4980024;28;20042;-68
2022/03/26 01:08:01;;;;;;;45.83;17.70;;;;;;;4.99;100.00;97807.44;4977842;28;20054;-70
2022/03/26 01:10:27;;;;;;;41.08;17.50;;;;;;;4.95;99.25;97805.31;4975542;28;20539;-69
2022/03/26 01:12:53;;;;;;;44.92;17.63;;;;;;;4.93;100.00;97799.38;4977956;28;20046;-69
2022/03/26 01:15:19;;;;;;;45.75;17.48;;;;;;;4.98;100.00;97797.00;4976323;28;20038;-68
2022/03/26 01:17:45;;;;;;;39.63;17.63;;;;;;;4.98;99.68;97797.00;4976646;28;20052;-67
2022/03/26 01:20:11;;;;;;;47.22;17.05;;;;;;;4.90;100.00;97799.72;4977271;28;20159;-69
2022/03/26 01:22:37;;;;;;;37.53;17.20;;;;;;;4.80;100.00;97799.97;4978886;28;20042;-68
2022/03/26 01:25:04;;;;;;;43.60;17.88;;;;;;;4.74;100.00;97793.56;4976656;28;20042;-70
2022/03/26 01:27:30;;;;;;;48.53;17.25;;;;;;;4.57;100.00;97794.69;4975981;28;20046;-67
2022/03/26 01:29:56;;;;;;;45.33;18.67;;;;;;;4.63;100.00;97798.47;4977555;28;20034;-69
2022/03/26 01:32:21;;;;;;;43.38;18.38;;;;;;;4.61;100.00;97796.00;4977695;28;20357;-68
2022/03/26 01:34:47;;;;;;;43.75;18.20;;;;;;;4.63;100.00;97799.31;4977970;28;20081;-71
2022/03/26 01:37:12;;;;;;;42.75;17.42;;;;;;;4.64;100.00;97785.03;4973750;28;20069;-68
2022/03/26 01:39:38;;;;;;;34.72;16.40;;;;;;;4.65;100.00;97780.56;4978498;28;20047;-71
2022/03/26 01:42:05;;;;;;;44.92;17.55;;;;;;;4.44;100.00;97778.59;4973280;28;20042;-68
2022/03/26 01:44:31;;;;;;;39.42;17.27;;;;;;;4.41;100.00;97771.81;4981435;28;20338;-67
2022/03/26 01:46:57;;;;;;;46.55;17.88;;;;;;;4.42;100.00;97781.41;4977921;28;20041;-71
2022/03/26 01:49:23;;;;;;;37.78;17.08;;;;;;;4.42;100.00;97781.41;4961551;28;20053;-70
2022/03/26 01:51:49;;;;;;;46.40;17.63;;;;;;;4.40;100.00;97782.59;4962573;28;20039;-69
2022/03/26 01:54:16;;;;;;;40.03;17.08;;;;;;;4.37;100.00;97772.34;4979044;28;20066;-68
2022/03/26 01:56:42;;;;;;;44.70;19.10;;;;;;;4.34;100.00;97770.03;4980572;28;20049;-68
2022/03/26 01:59:09;;;;;;;42.00;17.80;;;;;;;4.33;100.00;97776.34;4983316;28;20050;-71
2022/03/26 02:01:35;;;;;;;39.85;17.23;;;;;;;4.32;100.00;97780.81;4965085;28;20529;-68
2022/03/26 02:04:01;;;;;;;40.67;18.17;;;;;;;4.22;100.00;97774.94;4981506;28;20128;-68
2022/03/26 02:06:32;;;;;;;40.08;17.85;;;;;;;4.24;100.00;97780.88;4981799;28;20536;-69
2022/03/26 02:09:05;;;;;;;39.15;17.52;;;;;;;4.08;100.00;97781.81;4979930;28;20084;-68
2022/03/26 02:11:33;;;;;;;39.38;15.85;;;;;;;3.91;100.00;97785.56;4981580;28;20030;-68
2022/03/26 02:13:59;;;;;;;43.72;17.30;;;;;;;3.97;100.00;97787.53;4982110;28;20114;-68
2022/03/26 02:16:25;;;;;;;43.78;17.92;;;;;;;3.89;100.00;97783.09;4978922;28;20038;-69
2022/03/26 02:18:52;;;;;;;42.42;16.60;;;;;;;3.91;100.00;97778.44;4981989;28;20026;-67
2022/03/26 02:21:19;;;;;;;35.78;16.00;;;;;;;3.96;100.00;97791.13;4981782;28;20172;-69
2022/03/26 02:23:45;;;;;;;39.40;16.75;;;;;;;3.97;100.00;97778.72;4983356;28;20034;-68
2022/03/26 02:26:16;;;;;;;40.65;16.77;;;;;;;3.98;100.00;97775.91;4981642;28;20572;-68
2022/03/26 02:28:44;;;;;;;40.03;16.30;;;;;;;3.88;100.00;97777.94;4980468;28;20046;-68
2022/03/26 02:31:13;;;;;;;39.17;16.23;;;;;;;3.92;100.00;97789.84;4980521;28;20076;-67
2022/03/26 02:33:39;;;;;;;42.03;15.10;;;;;;;3.85;100.00;97779.13;4978942;28;20125;-69
2022/03/26 02:36:06;;;;;;;46.35;15.90;;;;;;;3.89;100.00;97782.25;4979570;28;20501;-68
2022/03/26 02:38:32;;;;;;;47.78;16.58;;;;;;;4.06;100.00;97783.81;4977865;28;20104;-71
2022/03/26 02:40:58;;;;;;;43.92;15.32;;;;;;;4.21;100.00;97777.78;4979733;28;20041;-71
2022/03/26 02:43:23;;;;;;;36.55;15.43;;;;;;;4.18;100.00;97777.09;4975564;28;20448;-67
2022/03/26 02:45:49;;;;;;;36.53;16.13;;;;;;;4.21;100.00;97775.94;4980130;28;20644;-70
2022/03/26 02:48:15;;;;;;;37.22;15.85;;;;;;;4.17;100.00;97783.41;4981813;28;20050;-67
2022/03/26 02:50:44;;;;;;;46.88;15.98;;;;;;;4.17;100.00;97786.03;4983013;28;20057;-68
2022/03/26 02:53:11;;;;;;;36.15;15.15;;;;;;;4.19;100.00;97781.38;4978685;28;20046;-68
2022/03/26 02:55:37;;;;;;;36.88;15.93;;;;;;;4.22;100.00;97780.22;4979097;28;20416;-68
2022/03/26 02:58:05;;;;;;;41.78;15.95;;;;;;;4.21;100.00;97777.78;4978513;28;20042;-70
2022/03/26 03:00:32;;;;;;;38.92;16.25;;;;;;;4.21;100.00;97783.88;4982475;28;20045;-68
2022/03/26 03:02:58;;;;;;;35.88;16.00;;;;;;;4.18;100.00;97774.44;4979072;28;20042;-71
2022/03/26 03:05:24;;;;;;;38.85;15.57;;;;;;;4.15;100.00;97779.28;4978591;28;20568;-70
2022/03/26 03:07:50;;;;;;;42.45;17.40;;;;;;;4.13;100.00;97782.13;4983627;28;20038;-71
2022/03/26 03:10:17;;;;;;;37.38;15.35;;;;;;;4.08;100.00;97773.03;4963131;28;20034;-71
2022/03/26 03:12:44;;;;;;;43.85;15.90;;;;;;;4.09;100.00;97779.97;4981790;28;20042;-67
2022/03/26 03:15:10;;;;;;;43.47;16.38;;;;;;;4.07;100.00;97772.22;4980177;28;20041;-70
2022/03/26 03:17:37;;;;;;;37.67;15.13;;;;;;;4.07;100.00;97776.69;4982525;28;20057;-70
2022/03/26 03:20:04;;;;;;;34.53;15.88;;;;;;;4.06;100.00;97769.75;4979722;28;20040;-69
2022/03/26 03:22:29;;;;;;;40.35;16.52;;;;;;;4.04;100.00;97771.72;4982039;28;20478;-69
2022/03/26 03:24:55;;;;;;;40.60;15.00;;;;;;;4.07;100.00;97776.69;4980533;28;20109;-71
2022/03/26 03:27:21;;;;;;;38.67;14.55;;;;;;;4.07;100.00;97771.41;4978293;28;22559;-68
2022/03/26 03:29:46;;;;;;;32.55;14.63;;;;;;;4.09;100.00;97772.03;4979997;28;20434;-67
2022/03/26 03:32:13;;;;;;;35.53;16.02;;;;;;;4.17;100.00;97774.63;4978003;28;20504;-68
2022/03/26 03:34:39;;;;;;;38.88;16.00;;;;;;;4.16;100.00;97773.81;4979696;28;20077;-71
2022/03/26 03:37:04;;;;;;;36.35;16.23;;;;;;;4.11;100.00;97781.44;4979595;28;20564;-68
2022/03/26 03:39:30;;;;;;;32.83;14.93;;;;;;;4.08;100.00;97789.75;4983479;28;20042;-68
2022/03/26 03:41:55;;;;;;;34.03;15.07;;;;;;;4.12;100.00;97784.91;4977210;28;20044;-68
2022/03/26 03:44:21;;;;;;;37.88;16.05;;;;;;;4.07;100.00;97785.47;4979542;28;20034;-67
2022/03/26 03:46:46;;;;;;;41.83;16.67;;;;;;;4.05;100.00;97784.81;4980102;28;20056;-70
2022/03/26 03:49:12;;;;;;;38.15;15.55;;;;;;;4.10;100.00;97778.97;4980248;28;20110;-67
2022/03/26 03:51:37;;;;;;;33.55;15.80;;;;;;;4.06;100.00;97789.13;4962727;28;20046;-67
2022/03/26 03:54:03;;;;;;;39.45;16.70;;;;;;;4.00;100.00;97788.97;4977671;28;20034;-70
2022/03/26 03:56:28;;;;;;;38.60;16.45;;;;;;;4.00;100.00;97784.50;4978705;28;20507;-70
2022/03/26 03:58:54;;;;;;;41.25;14.70;;;;;;;3.98;100.00;97785.69;4978277;28;20061;-68
2022/03/26 04:01:19;;;;;;;41.80;16.85;;;;;;;3.99;100.00;97790.81;4977868;28;20054;-69
2022/03/26 04:03:45;;;;;;;43.42;16.52;;;;;;;3.89;100.00;97776.94;4978145;28;20310;-69
2022/03/26 04:06:10;;;;;;;43.50;16.70;;;;;;;3.95;100.00;97784.19;4974711;28;20129;-69
2022/03/26 04:08:36;;;;;;;49.15;16.35;;;;;;;3.92;100.00;97785.38;4981540;28;20380;-68
2022/03/26 04:11:01;;;;;;;41.33;15.95;;;;;;;3.87;100.00;97782.41;4978378;28;20073;-71
2022/03/26 04:13:27;;;;;;;38.75;16.17;;;;;;;3.83;100.00;97788.25;4980402;28;20387;-68
2022/03/26 04:15:52;;;;;;;40.97;15.98;;;;;;;3.80;100.00;97791.22;4979755;28;20077;-70
2022/03/26 04:18:18;;;;;;;35.72;16.77;;;;;;;3.73;100.00;97782.31;4978385;28;20046;-68
2022/03/26 04:20:43;;;;;;;42.50;16.58;;;;;;;3.72;100.00;97783.31;4977342;28;20046;-67
2022/03/26 04:23:09;;;;;;;44.70;16.52;;;;;;;3.71;100.00;97784.31;4978828;28;20119;-71
2022/03/26 04:25:35;;;;;;;45.63;16.20;;;;;;;3.70;100.00;97775.56;4980252;28;20503;-69
2022/03/26 04:28:00;;;;;;;41.47;17.05;;;;;;;3.67;100.00;97783.03;4976678;28;20046;-71
2022/03/26 04:30:26;;;;;;;40.97;16.17;;;;;;;3.65;100.00;97788.47;4976911;28;20416;-70
2022/03/26 04:32:51;;;;;;;40.53;17.02;;;;;;;3.62;100.00;97789.66;4977662;28;20456;-67
2022/03/26 04:35:17;;;;;;;40.35;16.33;;;;;;;3.63;100.00;97791.31;4979883;28;20402;-67
2022/03/26 04:37:44;;;;;;;38.60;17.85;;;;;;;3.60;100.00;97791.66;4979856;28;20066;-69
2022/03/26 04:40:11;;;;;;;45.70;18.38;;;;;;;3.63;100.00;97788.66;4977398;28;20046;-71
2022/03/26 04:42:39;;;;;;;42.03;16.58;;;;;;;3.72;100.00;97796.56;4977457;28;20066;-68
2022/03/26 04:45:05;;;;;;;41.00;17.27;;;;;;;3.76;100.00;97801.34;4976318;28;20398;-71
2022/03/26 04:47:31;;;;;;;37.50;16.38;;;;;;;3.73;100.00;97801.69;4978210;28;20561;-67
2022/03/26 04:49:56;;;;;;;39.38;16.02;;;;;;;3.69;100.00;97797.75;4977272;28;20046;-71
2022/03/26 04:52:22;;;;;;;44.58;17.65;;;;;;;3.71;100.00;97805.50;4976896;28;20065;-68
2022/03/26 04:54:48;;;;;;;38.42;16.55;;;;;;;3.75;100.00;97798.88;4977583;28;20042;-67
2022/03/26 04:57:15;;;;;;;41.78;17.55;;;;;;;3.75;100.00;97799.72;4975821;28;20647;-70
2022/03/26 04:59:40;;;;;;;42.95;16.50;;;;;;;3.76;100.00;97806.66;4978807;28;20037;-69
2022/03/26 05:02:06;;;;;;;41.03;16.70;;;;;;;3.69;100.00;97804.88;4977853;28;20049;-69
2022/03/26 05:04:31;;;;;;;39.20;16.85;;;;;;;3.57;100.00;97813.16;4979410;28;20039;-68
2022/03/26 05:06:59;;;;;;;51.58;17.92;;;;;;;3.59;100.00;97807.72;4980006;28;20108;-71
2022/03/26 05:09:25;;;;;;;38.63;17.13;;;;;;;3.51;100.00;97813.88;4977231;28;20061;-67
2022/03/26 05:11:51;;;;;;;39.63;17.20;;;;;;;3.49;100.00;97805.25;4974521;28;20353;-68
2022/03/26 05:14:17;;;;;;;35.53;16.35;;;;;;;3.47;100.00;97801.97;4976759;28;20465;-68
2022/03/26 05:16:43;;;;;;;41.28;18.35;;;;;;;3.49;100.00;97805.25;4979256;28;20564;-68
2022/03/26 05:19:08;;;;;;;38.35;16.67;;;;;;;3.45;100.00;97803.97;4979572;28;20546;-68
2022/03/26 05:21:34;;;;;;;38.53;16.75;;;;;;;3.42;100.00;97801.63;4978101;28;20116;-68
2022/03/26 05:23:59;;;;;;;44.08;17.70;;;;;;;3.48;100.00;97803.59;4977571;28;20040;-67
2022/03/26 05:26:24;;;;;;;40.67;17.45;;;;;;;3.45;100.00;97803.13;4974836;28;20100;-69
2022/03/26 05:28:50;;;;;;;39.78;17.80;;;;;;;3.43;100.00;97808.59;4975338;28;20085;-68
2022/03/26 05:31:17;;;;;;;43.83;18.08;;;;;;;3.46;100.00;97799.50;4979835;28;20034;-69
2022/03/26 05:33:42;;;;;;;40.63;16.90;;;;;;;3.50;100.00;97814.88;4981380;28;20069;-68
2022/03/26 05:36:09;;;;;;;44.40;16.95;;;;;;;3.51;100.00;97819.16;4980985;28;20114;-69
2022/03/26 05:38:35;;;;;;;48.83;17.75;;;;;;;3.54;100.00;97820.63;4983259;28;20521;-68
2022/03/26 05:41:00;;;;;;;40.88;17.05;;;;;;;3.60;100.00;97823.44;4981285;28;20085;-71
2022/03/26 05:43:26;;;;;;;42.85;16.95;;;;;;;3.57;100.00;97821.09;4981783;28;21016;-69
2022/03/26 05:45:51;;;;;;;40.30;17.25;;;;;;;3.57;100.00;97828.22;4983164;28;20046;-69
2022/03/26 05:48:19;;;;;;;46.13;17.65;;;;;;;3.62;100.00;97831.19;4979933;28;20120;-68
2022/03/26 05:50:44;;;;;;;48.78;18.40;;;;;;;3.61;100.00;97826.91;4981026;28;20209;-74
2022/03/26 05:53:10;;;;;;;42.00;17.63;;;;;;;3.69;100.00;97826.03;4981718;28;20508;-68
2022/03/26 05:55:36;;;;;;;52.63;19.02;;;;;;;3.80;100.00;97834.41;4981152;28;20380;-69
2022/03/26 05:58:02;;;;;;;41.05;17.95;;;;;;;3.87;100.00;97840.69;4979104;28;20429;-70
2022/03/26 06:00:28;;;;;;;39.17;17.73;;;;;;;3.94;100.00;97826.75;4981334;28;20042;-70
2022/03/26 06:02:53;;;;;;;39.83;17.33;;;;;;;3.93;100.00;97831.22;4984625;28;20378;-72
2022/03/26 06:05:19;;;;;;;40.97;18.25;;;;;;;3.94;100.00;97835.53;4982485;28;20038;-70
2022/03/26 06:07:45;;;;;;;45.70;17.35;;;;;;;3.99;100.00;97835.84;4980039;28;20113;-71
2022/03/26 06:10:10;;;;;;;47.90;17.85;;;;;;;4.03;100.00;97839.78;4978574;28;20627;-71
2022/03/26 06:12:36;;;;;;;48.33;17.50;;;;;;;4.09;100.00;97849.69;4980313;28;20041;-70
2022/03/26 06:15:03;;;;;;;48.53;18.05;;;;;;;4.15;100.00;97850.81;4980209;28;20452;-72
2022/03/26 06:17:28;;;;;;;45.78;18.27;;;;;;;4.21;100.00;97849.31;4984609;28;20258;-69
2022/03/26 06:19:54;;;;;;;48.28;18.60;;;;;;;4.25;100.00;97853.25;4980722;28;20046;-71
2022/03/26 06:22:19;;;;;;;40.15;17.60;;;;;;;4.32;100.00;97854.19;4981108;28;20034;-70
2022/03/26 06:24:45;;;;;;;44.38;17.75;;;;;;;4.39;100.00;97855.97;4982340;28;20050;-71
2022/03/26 06:27:10;;;;;;;42.75;18.75;;;;;;;4.42;100.00;97854.78;4978667;28;20053;-71
2022/03/26 06:29:36;;;;;;;43.35;17.73;;;;;;;4.44;100.00;97847.50;4981049;28;20486;-70
2022/03/26 06:32:03;;;;;;;40.13;17.83;;;;;;;4.53;100.00;97842.97;4979859;28;20042;-70
2022/03/26 06:34:28;;;;;;;39.15;17.45;;;;;;;4.59;100.00;97844.91;4984910;28;20712;-71
2022/03/26 06:36:54;;;;;;;43.17;17.73;;;;;;;4.63;100.00;97843.56;4981513;28;20043;-68
2022/03/26 06:39:20;;;;;;;42.33;19.70;;;;;;;4.72;100.00;97851.25;4980251;28;20485;-68
2022/03/26 06:41:45;;;;;;;44.33;19.02;;;;;;;4.82;100.00;97842.22;4975202;28;20455;-71
2022/03/26 06:44:12;;;;;;;50.42;18.92;;;;;;;4.91;100.00;97849.16;4978795;28;20065;-68
2022/03/26 06:46:39;;;;;;;41.28;19.25;;;;;;;5.04;100.00;97854.66;4978631;28;20035;-68
2022/03/26 06:49:10;;;;;;;44.60;18.80;;;;;;;5.13;100.00;97850.09;4976923;28;20148;-71
2022/03/26 06:51:36;;;;;;;47.50;19.27;;;;;;;5.25;100.00;97843.34;4981551;28;20058;-69
2022/03/26 06:54:02;;;;;;;40.45;19.00;;;;;;;5.37;100.00;97862.28;4978782;28;20033;-71
2022/03/26 06:56:28;;;;;;;44.42;18.67;;;;;;;5.48;100.00;97853.91;4975981;28;20103;-71
2022/03/26 06:58:54;;;;;;;43.05;18.67;;;;;;;5.55;100.00;97853.00;4981105;28;20052;-69
2022/03/26 07:01:20;;;;;;;59.63;19.73;;;;;;;5.66;100.00;97854.34;4978637;28;20056;-68
2022/03/26 07:03:53;;;;;;;59.90;21.40;;;;;;;5.77;100.00;97863.72;4981113;28;20146;-71
2022/03/26 07:06:19;;;;;;;54.67;21.88;;;;;;;5.82;100.00;97870.09;4978864;28;20038;-69
2022/03/26 07:08:46;;;;;;;53.92;21.75;;;;;;;5.92;100.00;97877.03;4979240;28;20058;-69
2022/03/26 07:11:12;;;;;;;53.70;23.65;;;;;;;6.02;100.00;97872.25;4976701;28;20048;-68
2022/03/26 07:13:37;;;;;;;63.65;25.30;;;;;;;6.08;100.00;97868.84;4979716;28;20035;-69
2022/03/26 07:16:03;;;;;;;72.75;26.15;;;;;;;6.12;100.00;97881.56;4962794;28;20096;-71
2022/03/26 07:18:28;;;;;;;64.70;25.23;;;;;;;6.18;100.00;97881.84;4981975;28;20385;-68
2022/03/26 07:20:59;;;;;;;63.65;25.42;;;;;;;6.27;100.00;97883.38;4978886;28;20046;-69
2022/03/26 07:23:24;;;;;;;60.78;26.90;;;;;;;6.37;100.00;97891.88;4975596;28;20042;-69
2022/03/26 07:25:49;;;;;;;57.28;23.73;;;;;;;6.47;100.00;97888.94;4977089;28;20083;-68
2022/03/26 07:28:15;;;;;;;59.97;24.40;;;;;;;6.58;100.00;97891.09;4964449;28;20045;-71
2022/03/26 07:30:40;;;;;;;52.10;21.20;;;;;;;6.69;100.00;97894.09;4977673;28;20348;-70
2022/03/26 07:33:06;;;;;;;50.80;20.73;;;;;;;6.79;100.00;97898.28;4976441;28;20042;-70
2022/03/26 07:35:31;;;;;;;40.78;19.40;;;;;;;6.88;100.00;97895.28;4980281;28;20113;-69
2022/03/26 07:37:58;;;;;;;47.42;19.23;;;;;;;7.02;100.00;97898.09;4980194;28;20060;-70
2022/03/26 07:40:23;;;;;;;50.28;19.85;;;;;;;7.30;100.00;97898.13;4977204;28;20046;-69
2022/03/26 07:42:49;;;;;;;44.95;17.30;;;;;;;7.56;100.00;97902.84;4976678;28;20116;-70
2022/03/26 07:45:14;;;;;;;43.33;18.00;;;;;;;7.82;99.74;97895.00;4976734;28;20035;-70
2022/03/26 07:47:40;;;;;;;51.85;19.08;;;;;;;8.05;100.00;97897.38;4978554;28;20180;-69
2022/03/26 07:50:07;;;;;;;46.78;18.05;;;;;;;8.20;98.42;97891.94;4978402;28;20046;-70
2022/03/26 07:52:33;;;;;;;45.38;18.80;;;;;;;8.23;99.62;97889.66;4980083;28;20124;-70
2022/03/26 07:54:58;;;;;;;51.90;18.17;;;;;;;8.35;98.02;97887.31;4978378;28;20038;-68
2022/03/26 07:57:24;;;;;;;53.53;19.27;;;;;;;8.43;99.96;97895.13;4978813;28;20455;-69
2022/03/26 07:59:49;;;;;;;44.78;18.45;;;;;;;8.56;100.00;97897.84;4958626;28;20131;-70
2022/03/26 08:02:15;;;;;;;45.05;15.77;;;;;;;8.70;98.33;97882.69;4980108;28;20077;-68
2022/03/26 08:04:40;;;;;;;42.90;18.75;;;;;;;8.98;98.62;97892.41;4976716;28;20045;-69
2022/03/26 08:07:06;;;;;;;41.85;18.33;;;;;;;9.10;97.25;97893.41;4981004;28;20039;-68
2022/03/26 08:09:32;;;;;;;42.10;18.77;;;;;;;9.23;95.25;97904.13;4983771;28;20046;-69
2022/03/26 08:11:58;;;;;;;42.17;19.20;;;;;;;9.30;93.46;97901.47;4961793;28;20355;-69
2022/03/26 08:14:23;;;;;;;46.28;19.75;;;;;;;9.41;93.73;97900.81;4976429;28;20062;-69
2022/03/26 08:16:49;;;;;;;37.38;17.58;;;;;;;9.52;92.83;97891.38;4983475;28;20046;-72
2022/03/26 08:19:15;;;;;;;42.08;18.63;;;;;;;9.65;92.83;97907.38;4979328;28;20050;-68
2022/03/26 08:21:40;;;;;;;50.78;19.08;;;;;;;9.73;92.27;97901.84;4979810;28;20116;-70
2022/03/26 08:24:06;;;;;;;50.75;19.52;;;;;;;9.90;91.90;97904.91;4980473;28;20577;-71
2022/03/26 08:26:31;;;;;;;43.83;20.00;;;;;;;9.99;90.95;97909.00;4983982;28;20294;-69
2022/03/26 08:28:59;;;;;;;42.95;18.23;;;;;;;10.08;89.00;97907.72;4978927;28;20034;-68
2022/03/26 08:31:28;;;;;;;38.55;16.98;;;;;;;10.22;88.90;97904.03;4979942;28;20047;-68
2022/03/26 08:33:54;;;;;;;39.53;17.65;;;;;;;10.36;90.10;97906.66;4987737;28;20038;-68
2022/03/26 08:36:20;;;;;;;43.60;18.02;;;;;;;10.47;88.00;97911.34;4981238;28;20116;-71
2022/03/26 08:38:47;;;;;;;43.33;17.15;;;;;;;10.60;85.60;97908.63;4980762;28;20066;-71
2022/03/26 08:41:14;;;;;;;40.00;17.25;;;;;;;10.67;88.23;97897.88;4980600;28;20034;-69
2022/03/26 08:43:40;;;;;;;40.22;17.48;;;;;;;10.79;85.43;97914.88;4978459;28;20054;-69
2022/03/26 08:46:05;;;;;;;44.90;18.65;;;;;;;10.90;85.14;97905.38;4981089;28;20532;-70
2022/03/26 08:48:31;;;;;;;38.53;16.98;;;;;;;10.99;84.69;97910.25;4982156;28;20081;-71
2022/03/26 08:50:57;;;;;;;43.17;18.52;;;;;;;11.10;83.74;97911.41;4965567;28;20038;-71
2022/03/26 08:53:23;;;;;;;38.83;15.68;;;;;;;11.21;82.62;97915.25;4976921;28;20526;-70
2022/03/26 08:55:49;;;;;;;39.35;17.58;;;;;;;11.36;81.59;97911.22;4982437;28;20041;-70
2022/03/26 08:58:17;;;;;;;42.53;17.80;;;;;;;11.45;80.58;97911.78;4977312;28;20034;-70
2022/03/26 09:00:43;;;;;;;44.50;18.25;;;;;;;11.51;81.54;97913.56;4979776;28;20125;-69
2022/03/26 09:03:09;;;;;;;46.22;18.85;;;;;;;11.65;78.78;97908.91;4978933;28;20034;-68
2022/03/26 09:05:34;;;;;;;36.75;16.73;;;;;;;11.76;79.64;97897.47;4983109;28;20065;-69
2022/03/26 09:07:59;;;;;;;42.33;18.55;;;;;;;11.80;77.02;97906.75;4982187;28;20068;-70
2022/03/26 09:10:27;;;;;;;42.85;16.60;;;;;;;12.02;76.28;97903.66;4981298;28;20072;-70
2022/03/26 09:12:53;;;;;;;48.05;19.40;;;;;;;12.18;73.66;97913.78;4983331;28;20045;-68
2022/03/26 09:15:18;;;;;;;36.25;16.02;;;;;;;12.26;76.14;97913.50;4982106;28;20042;-71
2022/03/26 09:17:44;;;;;;;39.05;16.73;;;;;;;12.20;71.64;97911.69;4983304;28;20034;-70
2022/03/26 09:20:10;;;;;;;48.47;18.73;;;;;;;12.45;73.50;97912.47;4981130;28;20394;-69
2022/03/26 09:22:36;;;;;;;41.40;17.77;;;;;;;12.58;69.86;97902.59;4983806;28;20130;-69
2022/03/26 09:25:04;;;;;;;33.08;15.65;;;;;;;12.65;70.13;97914.06;4984143;28;20597;-72
2022/03/26 09:27:30;;;;;;;42.45;16.63;;;;;;;12.77;63.39;97904.19;4981643;28;20056;-70
2022/03/26 09:29:56;;;;;;;38.35;17.83;;;;;;;12.89;65.31;97901.56;4980639;28;20042;-67
2022/03/26 09:32:22;;;;;;;38.88;17.52;;;;;;;13.06;62.81;97907.91;4984113;28;20050;-68
2022/03/26 09:34:48;;;;;;;38.55;16.80;;;;;;;13.10;62.46;97914.47;4982324;28;20048;-71
2022/03/26 09:37:15;;;;;;;40.63;16.15;;;;;;;13.30;62.22;97911.50;4982112;28;20516;-68
2022/03/26 09:39:41;;;;;;;32.55;15.15;;;;;;;13.23;57.00;97906.25;4983612;28;20053;-70
2022/03/26 09:42:09;;;;;;;28.65;12.55;;;;;;;13.49;60.30;97910.38;4980998;28;20046;-69
2022/03/26 09:44:36;;;;;;;41.70;16.23;;;;;;;13.70;61.77;97894.75;4984094;28;20428;-69
2022/03/26 09:47:05;;;;;;;34.40;15.95;;;;;;;13.81;55.82;97913.56;4982794;28;20675;-72
2022/03/26 09:49:31;;;;;;;32.17;14.50;;;;;;;13.72;54.17;97898.84;4982953;28;20447;-69
2022/03/26 09:51:57;;;;;;;38.33;15.68;;;;;;;13.73;52.43;97903.16;4983666;28;20047;-70
2022/03/26 09:54:23;;;;;;;31.23;15.80;;;;;;;13.99;55.17;97891.09;4983091;28;20477;-68
2022/03/26 09:56:49;;;;;;;44.08;16.58;;;;;;;14.12;52.76;97898.94;4981209;28;20122;-68
2022/03/26 09:59:22;;;;;;;39.75;14.90;;;;;;;14.15;51.66;97898.44;4981154;28;20050;-72
2022/03/26 10:01:49;;;;;;;32.83;14.13;;;;;;;14.21;50.80;97902.91;4980734;28;20064;-71
2022/03/26 10:04:16;;;;;;;33.95;15.43;;;;;;;14.30;48.65;97894.44;4969139;28;20038;-72
2022/03/26 10:06:55;;;;;;;41.03;16.38;;;;;;;14.48;49.18;97902.41;4983478;28;20408;-70
2022/03/26 10:09:32;;;;;;;33.65;15.88;;;;;;;14.79;48.76;97911.09;4980776;28;20035;-68
2022/03/26 10:12:05;;;;;;;35.75;15.55;;;;;;;14.74;48.06;97909.94;4983532;28;20125;-69
2022/03/26 10:14:41;;;;;;;36.03;15.30;;;;;;;14.85;46.48;97902.03;4981906;28;20103;-69
2022/03/26 10:17:09;;;;;;;31.90;14.38;;;;;;;15.20;46.64;97907.28;4981822;28;20607;-72
2022/03/26 10:19:35;;;;;;;35.92;14.50;;;;;;;15.33;44.17;97899.72;4980099;28;20765;-68
2022/03/26 10:22:01;;;;;;;29.70;13.23;;;;;;;15.42;42.38;97894.72;4982462;28;20132;-69
2022/03/26 10:24:28;;;;;;;38.45;15.18;;;;;;;15.69;44.73;97908.41;4983237;28;20367;-70
2022/03/26 10:26:55;;;;;;;32.00;15.60;;;;;;;16.06;44.14;97897.88;4982480;28;20237;-69
2022/03/26 10:29:20;;;;;;;35.75;13.27;;;;;;;16.63;41.01;97904.81;4980462;28;20077;-70
2022/03/26 10:34:31;;;;;;;32.30;13.60;;;;;;;18.43;36.17;97892.56;4983047;28;20485;-69
2022/03/26 10:36:58;;;;;;;30.02;14.15;;;;;;;19.05;34.57;97895.25;4983211;28;20042;-71
2022/03/26 10:39:25;;;;;;;29.48;12.75;;;;;;;20.57;32.17;97888.13;4981203;28;20074;-70
2022/03/26 10:41:53;;;;;;;28.55;12.40;;;;;;;20.97;30.15;97889.03;4982188;28;20507;-70
2022/03/26 10:44:22;;;;;;;33.08;13.13;;;;;;;22.23;28.35;97889.13;4980684;28;20081;-69
2022/03/26 10:46:51;;;;;;;31.67;13.15;;;;;;;23.94;26.32;97882.66;4985082;28;20050;-69
2022/03/26 10:49:30;;;;;;;29.73;13.93;;;;;;;24.36;25.89;97871.53;4981711;28;20053;-70
2022/03/26 10:52:03;;;;;;;29.63;14.27;;;;;;;25.39;24.54;97873.69;4983178;28;20430;-69
2022/03/26 10:54:31;;;;;;;32.75;13.82;;;;;;;24.73;23.82;97870.47;4982736;28;20367;-71
2022/03/26 10:56:59;;;;;;;40.50;14.20;;;;;;;25.19;24.22;97877.72;4981815;28;20042;-71
2022/03/26 10:59:25;;;;;;;34.88;13.98;;;;;;;26.46;23.55;97864.66;4978273;28;20540;-69
2022/03/26 11:01:51;;;;;;;27.42;14.05;;;;;;;26.94;22.65;97865.44;4982293;28;20092;-69
2022/03/26 11:04:18;;;;;;;29.90;14.90;;;;;;;27.70;21.68;97856.78;4979955;28;20149;-70
2022/03/26 11:06:44;;;;;;;30.65;15.82;;;;;;;28.53;21.09;97858.28;4981667;28;20100;-69
2022/03/26 11:09:11;;;;;;;31.15;13.30;;;;;;;28.03;21.30;97859.75;4980894;28;20093;-71
2022/03/26 11:11:37;;;;;;;36.72;14.55;;;;;;;28.28;21.24;97869.06;4979060;28;20070;-69
2022/03/26 11:14:10;;;;;;;30.05;14.82;;;;;;;28.03;21.03;97867.22;4980241;28;20041;-72
2022/03/26 11:16:42;;;;;;;32.63;14.40;;;;;;;27.67;20.22;97853.84;4982749;28;20045;-69
2022/03/26 11:19:26;;;;;;;30.40;15.38;;;;;;;28.35;20.90;97854.00;4979775;28;20039;-72